CEB104 RPVP-RPLL
Flight info
| Callsign | CEB104 |
|---|---|
| Flight time | N/A |
| Altitude | 37000 |
| Route | DABOY1E DABOY W281 LEGED N884 LUBAN LUBAN5R |
| Aircraft | A20N/M-SDE2E3FGHIRWXY/LB1 |
Departure
| Time | 2026-04-15 09:43 |
|---|---|
| Airport | Puerto Princesa International Airport / PAF Antonio Bautista Air Base (RPVP) |
Arrival
| Time | N/A |
|---|---|
| Airport | Ninoy Aquino International Airport (RPLL) |
| Time | Latitude | Longitude | Altitude | Speed | Heading |
|---|---|---|---|---|---|
| 2026-04-15 08:55 | 9.74508 | 118.75064 | 73 ft | 0 kts | 2° |
| 2026-04-15 09:30 | 9.74495 | 118.75063 | 73 ft | 2 kts | 8° |
| 2026-04-15 09:30 | 9.74480 | 118.75061 | 73 ft | 2 kts | 3° |
| 2026-04-15 09:30 | 9.74465 | 118.75060 | 73 ft | 2 kts | 4° |
| 2026-04-15 09:31 | 9.74453 | 118.75060 | 73 ft | 0 kts | 4° |
| 2026-04-15 09:31 | 9.74439 | 118.75060 | 73 ft | 2 kts | 343° |
| 2026-04-15 09:31 | 9.74426 | 118.75066 | 73 ft | 2 kts | 322° |
| 2026-04-15 09:31 | 9.74415 | 118.75078 | 72 ft | 2 kts | 299° |
| 2026-04-15 09:32 | 9.74410 | 118.75092 | 72 ft | 1 kts | 277° |
| 2026-04-15 09:32 | 9.74409 | 118.75099 | 72 ft | 1 kts | 270° |
| 2026-04-15 09:32 | 9.74409 | 118.75101 | 72 ft | 0 kts | 271° |
| 2026-04-15 09:37 | 9.74410 | 118.75092 | 72 ft | 3 kts | 272° |
| 2026-04-15 09:37 | 9.74412 | 118.75047 | 73 ft | 8 kts | 272° |
| 2026-04-15 09:37 | 9.74415 | 118.74970 | 74 ft | 13 kts | 272° |
| 2026-04-15 09:37 | 9.74421 | 118.74868 | 74 ft | 13 kts | 273° |
| 2026-04-15 09:38 | 9.74424 | 118.74768 | 74 ft | 14 kts | 262° |
| 2026-04-15 09:38 | 9.74372 | 118.74708 | 74 ft | 9 kts | 187° |
| 2026-04-15 09:38 | 9.74349 | 118.74706 | 74 ft | 0 kts | 182° |
| 2026-04-15 09:40 | 9.74347 | 118.74706 | 74 ft | 1 kts | 183° |
| 2026-04-15 09:41 | 9.74325 | 118.74706 | 74 ft | 4 kts | 182° |
| 2026-04-15 09:41 | 9.74276 | 118.74712 | 74 ft | 7 kts | 143° |
| 2026-04-15 09:41 | 9.74261 | 118.74763 | 74 ft | 7 kts | 93° |
| 2026-04-15 09:41 | 9.74261 | 118.74768 | 74 ft | 0 kts | 93° |
| 2026-04-15 09:42 | 9.74261 | 118.74770 | 74 ft | 5 kts | 93° |
| 2026-04-15 09:42 | 9.74249 | 118.75036 | 72 ft | 63 kts | 92° |
| 2026-04-15 09:42 | 9.74218 | 118.75732 | 62 ft | 130 kts | 93° |
| 2026-04-15 09:42 | 9.74169 | 118.76831 | 316 ft | 160 kts | 92° |
| 2026-04-15 09:43 | 9.74112 | 118.77934 | 1023 ft | 157 kts | 92° |
| 2026-04-15 09:43 | 9.74248 | 118.79027 | 1644 ft | 157 kts | 57° |
| 2026-04-15 09:43 | 9.75154 | 118.79647 | 2100 ft | 170 kts | 15° |
| 2026-04-15 09:43 | 9.76396 | 118.79887 | 2483 ft | 185 kts | 12° |
| 2026-04-15 09:44 | 9.77723 | 118.80164 | 2841 ft | 201 kts | 14° |
| 2026-04-15 09:44 | 9.79177 | 118.80514 | 3205 ft | 218 kts | 14° |
| 2026-04-15 09:44 | 9.80734 | 118.80918 | 3517 ft | 239 kts | 15° |
| 2026-04-15 09:44 | 9.82403 | 118.81369 | 4192 ft | 244 kts | 15° |
| 2026-04-15 09:45 | 9.84057 | 118.81824 | 4944 ft | 245 kts | 16° |
| 2026-04-15 09:45 | 9.85725 | 118.82287 | 5690 ft | 247 kts | 16° |
| 2026-04-15 09:45 | 9.87407 | 118.82758 | 6411 ft | 250 kts | 16° |
| 2026-04-15 09:45 | 9.89144 | 118.83131 | 7150 ft | 252 kts | 8° |
| 2026-04-15 09:46 | 9.90926 | 118.83238 | 7740 ft | 261 kts | 1° |
| 2026-04-15 09:46 | 9.92871 | 118.83200 | 8152 ft | 278 kts | 360° |
| 2026-04-15 09:46 | 9.94851 | 118.83133 | 8729 ft | 285 kts | 359° |
| 2026-04-15 09:46 | 9.96934 | 118.83062 | 9377 ft | 288 kts | 360° |
| 2026-04-15 09:47 | 9.98977 | 118.82995 | 10002 ft | 292 kts | 360° |
| 2026-04-15 09:47 | 10.01026 | 118.82931 | 10485 ft | 300 kts | 360° |
| 2026-04-15 09:47 | 10.03180 | 118.82867 | 10854 ft | 315 kts | 360° |
| 2026-04-15 09:47 | 10.05443 | 118.82798 | 11378 ft | 321 kts | 360° |
| 2026-04-15 09:48 | 10.07716 | 118.82729 | 11995 ft | 323 kts | 0° |
| 2026-04-15 09:48 | 10.09998 | 118.82660 | 12592 ft | 326 kts | 0° |
| 2026-04-15 09:48 | 10.12307 | 118.82591 | 13167 ft | 329 kts | 0° |
| 2026-04-15 09:48 | 10.14650 | 118.82521 | 13731 ft | 332 kts | 0° |
| 2026-04-15 09:49 | 10.17014 | 118.82451 | 14304 ft | 335 kts | 0° |
| 2026-04-15 09:49 | 10.19368 | 118.82380 | 14867 ft | 337 kts | 0° |
| 2026-04-15 09:49 | 10.21788 | 118.82307 | 15435 ft | 340 kts | 1° |
| 2026-04-15 09:49 | 10.24188 | 118.82235 | 15994 ft | 342 kts | 1° |
| 2026-04-15 09:50 | 10.26585 | 118.82165 | 16524 ft | 344 kts | 1° |
| 2026-04-15 09:50 | 10.29043 | 118.82091 | 17032 ft | 347 kts | 1° |
| 2026-04-15 09:50 | 10.29400 | 118.82081 | 17105 ft | 348 kts | 1° |
| 2026-04-15 09:51 | 10.30891 | 118.82037 | 17403 ft | 350 kts | 1° |
| 2026-04-15 09:51 | 10.33364 | 118.81964 | 17892 ft | 353 kts | 1° |
| 2026-04-15 09:51 | 10.35932 | 118.81889 | 18394 ft | 355 kts | 1° |
| 2026-04-15 09:52 | 10.38499 | 118.81815 | 18889 ft | 358 kts | 0° |
| 2026-04-15 09:52 | 10.41102 | 118.81791 | 19375 ft | 359 kts | 4° |
| 2026-04-15 09:52 | 10.43658 | 118.81921 | 19849 ft | 361 kts | 6° |
| 2026-04-15 09:52 | 10.45814 | 118.82069 | 20250 ft | 363 kts | 6° |
| 2026-04-15 09:53 | 10.48418 | 118.82255 | 20721 ft | 365 kts | 6° |
| 2026-04-15 09:53 | 10.51045 | 118.82441 | 21198 ft | 367 kts | 6° |
| 2026-04-15 09:53 | 10.53664 | 118.82627 | 21659 ft | 369 kts | 6° |
| 2026-04-15 09:53 | 10.56344 | 118.82816 | 22116 ft | 372 kts | 5° |
| 2026-04-15 09:54 | 10.58987 | 118.83004 | 22550 ft | 375 kts | 5° |
| 2026-04-15 09:54 | 10.61607 | 118.83187 | 22968 ft | 377 kts | 5° |
| 2026-04-15 09:54 | 10.64349 | 118.83379 | 23379 ft | 381 kts | 5° |
| 2026-04-15 09:54 | 10.67071 | 118.83570 | 23783 ft | 384 kts | 5° |
| 2026-04-15 09:55 | 10.69840 | 118.83764 | 24183 ft | 387 kts | 5° |
| 2026-04-15 09:55 | 10.72490 | 118.83950 | 24559 ft | 390 kts | 5° |
| 2026-04-15 09:55 | 10.75332 | 118.84149 | 24950 ft | 393 kts | 5° |
| 2026-04-15 09:55 | 10.78118 | 118.84345 | 25320 ft | 396 kts | 5° |
| 2026-04-15 09:56 | 10.80963 | 118.84544 | 25681 ft | 399 kts | 5° |
| 2026-04-15 09:56 | 10.83796 | 118.84744 | 26028 ft | 402 kts | 5° |
| 2026-04-15 09:56 | 10.89623 | 118.85152 | 26732 ft | 408 kts | 5° |
| 2026-04-15 09:57 | 10.92566 | 118.85359 | 27093 ft | 411 kts | 4° |
| 2026-04-15 09:57 | 10.95468 | 118.85563 | 27444 ft | 413 kts | 4° |
| 2026-04-15 09:57 | 10.98461 | 118.85774 | 27771 ft | 415 kts | 4° |
| 2026-04-15 09:57 | 11.01409 | 118.85981 | 28068 ft | 418 kts | 4° |
| 2026-04-15 09:58 | 11.04444 | 118.86195 | 28373 ft | 421 kts | 4° |
| 2026-04-15 09:58 | 11.07449 | 118.86406 | 28676 ft | 423 kts | 4° |
| 2026-04-15 09:58 | 11.10521 | 118.86621 | 28977 ft | 425 kts | 4° |
| 2026-04-15 09:58 | 11.13565 | 118.86835 | 29272 ft | 427 kts | 4° |
| 2026-04-15 09:59 | 11.16653 | 118.87052 | 29571 ft | 429 kts | 4° |